sensor_id;sensor_type;location;lat;lon;timestamp;temperature;humidity
20735;DHT22;10528;52.124;5.196;2022-10-16T00:01:35;14.00;99.90
20735;DHT22;10528;52.124;5.196;2022-10-16T00:04:03;14.00;99.90
20735;DHT22;10528;52.124;5.196;2022-10-16T00:06:31;14.00;99.90
20735;DHT22;10528;52.124;5.196;2022-10-16T00:08:58;14.00;99.90
20735;DHT22;10528;52.124;5.196;2022-10-16T00:11:36;13.90;99.90
20735;DHT22;10528;52.124;5.196;2022-10-16T00:14:07;13.90;99.90
20735;DHT22;10528;52.124;5.196;2022-10-16T00:16:37;13.90;99.90
20735;DHT22;10528;52.124;5.196;2022-10-16T00:19:04;13.90;99.90
20735;DHT22;10528;52.124;5.196;2022-10-16T00:21:32;13.90;99.90
20735;DHT22;10528;52.124;5.196;2022-10-16T00:24:08;13.90;99.90
20735;DHT22;10528;52.124;5.196;2022-10-16T00:26:37;13.90;99.90
20735;DHT22;10528;52.124;5.196;2022-10-16T00:29:05;13.90;99.90
20735;DHT22;10528;52.124;5.196;2022-10-16T00:31:33;13.90;99.90
20735;DHT22;10528;52.124;5.196;2022-10-16T00:33:59;13.90;99.90
20735;DHT22;10528;52.124;5.196;2022-10-16T00:36:27;13.90;99.90
20735;DHT22;10528;52.124;5.196;2022-10-16T00:38:55;13.90;99.90
20735;DHT22;10528;52.124;5.196;2022-10-16T00:41:32;14.00;99.90
20735;DHT22;10528;52.124;5.196;2022-10-16T00:44:03;13.90;99.90
20735;DHT22;10528;52.124;5.196;2022-10-16T00:46:50;13.90;99.90
20735;DHT22;10528;52.124;5.196;2022-10-16T00:49:18;14.00;99.90
20735;DHT22;10528;52.124;5.196;2022-10-16T00:51:51;14.00;99.90
20735;DHT22;10528;52.124;5.196;2022-10-16T00:54:25;14.00;99.90
20735;DHT22;10528;52.124;5.196;2022-10-16T00:56:55;14.00;99.90
20735;DHT22;10528;52.124;5.196;2022-10-16T00:59:38;14.00;99.90
20735;DHT22;10528;52.124;5.196;2022-10-16T01:02:08;14.00;99.90
20735;DHT22;10528;52.124;5.196;2022-10-16T01:04:57;14.10;99.90
20735;DHT22;10528;52.124;5.196;2022-10-16T01:07:47;14.10;99.90
20735;DHT22;10528;52.124;5.196;2022-10-16T01:11:06;14.20;99.90
20735;DHT22;10528;52.124;5.196;2022-10-16T01:13:50;14.30;99.90
20735;DHT22;10528;52.124;5.196;2022-10-16T01:16:31;14.30;99.90
20735;DHT22;10528;52.124;5.196;2022-10-16T01:19:15;14.30;99.90
20735;DHT22;10528;52.124;5.196;2022-10-16T01:21:53;14.30;99.90
20735;DHT22;10528;52.124;5.196;2022-10-16T01:24:33;14.30;99.90
20735;DHT22;10528;52.124;5.196;2022-10-16T01:27:10;14.30;99.90
20735;DHT22;10528;52.124;5.196;2022-10-16T01:32:49;14.30;99.90
20735;DHT22;10528;52.124;5.196;2022-10-16T01:35:27;14.30;99.90
20735;DHT22;10528;52.124;5.196;2022-10-16T01:38:07;14.30;99.90
20735;DHT22;10528;52.124;5.196;2022-10-16T01:40:42;14.30;99.90
20735;DHT22;10528;52.124;5.196;2022-10-16T01:43:15;14.30;99.90
20735;DHT22;10528;52.124;5.196;2022-10-16T01:45:46;14.30;99.90
20735;DHT22;10528;52.124;5.196;2022-10-16T01:48:19;14.20;99.90
20735;DHT22;10528;52.124;5.196;2022-10-16T01:51:07;14.20;99.90
20735;DHT22;10528;52.124;5.196;2022-10-16T01:53:45;14.30;99.90
20735;DHT22;10528;52.124;5.196;2022-10-16T01:56:17;14.30;99.90
20735;DHT22;10528;52.124;5.196;2022-10-16T01:59:00;14.20;99.90
20735;DHT22;10528;52.124;5.196;2022-10-16T02:01:33;14.30;99.90
20735;DHT22;10528;52.124;5.196;2022-10-16T02:04:16;14.30;99.90
20735;DHT22;10528;52.124;5.196;2022-10-16T02:06:46;14.30;99.90
20735;DHT22;10528;52.124;5.196;2022-10-16T02:09:14;14.20;99.90
20735;DHT22;10528;52.124;5.196;2022-10-16T02:11:43;14.20;99.90
20735;DHT22;10528;52.124;5.196;2022-10-16T02:14:11;14.20;99.90
20735;DHT22;10528;52.124;5.196;2022-10-16T02:16:40;14.20;99.90
20735;DHT22;10528;52.124;5.196;2022-10-16T02:19:13;14.20;99.90
20735;DHT22;10528;52.124;5.196;2022-10-16T02:21:46;14.10;99.90
20735;DHT22;10528;52.124;5.196;2022-10-16T02:24:32;14.10;99.90
20735;DHT22;10528;52.124;5.196;2022-10-16T02:30:25;14.10;99.90
20735;DHT22;10528;52.124;5.196;2022-10-16T02:33:12;14.00;99.90
20735;DHT22;10528;52.124;5.196;2022-10-16T02:35:41;14.00;99.90
20735;DHT22;10528;52.124;5.196;2022-10-16T02:38:12;14.00;99.90
20735;DHT22;10528;52.124;5.196;2022-10-16T02:40:41;14.00;99.90
20735;DHT22;10528;52.124;5.196;2022-10-16T02:43:09;14.00;99.90
20735;DHT22;10528;52.124;5.196;2022-10-16T02:45:37;14.00;99.90
20735;DHT22;10528;52.124;5.196;2022-10-16T02:48:04;14.00;99.90
20735;DHT22;10528;52.124;5.196;2022-10-16T02:50:31;14.00;99.90
20735;DHT22;10528;52.124;5.196;2022-10-16T02:52:58;14.00;99.90
20735;DHT22;10528;52.124;5.196;2022-10-16T02:55:25;14.10;99.90
20735;DHT22;10528;52.124;5.196;2022-10-16T02:57:52;14.10;99.90
20735;DHT22;10528;52.124;5.196;2022-10-16T03:00:19;14.10;99.90
20735;DHT22;10528;52.124;5.196;2022-10-16T03:02:47;14.10;99.90
20735;DHT22;10528;52.124;5.196;2022-10-16T03:05:14;14.10;99.90
20735;DHT22;10528;52.124;5.196;2022-10-16T03:07:41;14.10;99.90
20735;DHT22;10528;52.124;5.196;2022-10-16T03:10:08;14.10;99.90
20735;DHT22;10528;52.124;5.196;2022-10-16T03:12:35;14.10;99.90
20735;DHT22;10528;52.124;5.196;2022-10-16T03:15:03;14.10;99.90
20735;DHT22;10528;52.124;5.196;2022-10-16T03:17:32;14.20;99.90
20735;DHT22;10528;52.124;5.196;2022-10-16T03:19:59;14.10;99.90
20735;DHT22;10528;52.124;5.196;2022-10-16T03:22:27;14.00;99.90
20735;DHT22;10528;52.124;5.196;2022-10-16T03:24:53;14.00;99.90
20735;DHT22;10528;52.124;5.196;2022-10-16T03:27:20;14.00;99.90
20735;DHT22;10528;52.124;5.196;2022-10-16T03:29:47;14.00;99.90
20735;DHT22;10528;52.124;5.196;2022-10-16T03:32:14;14.00;99.90
20735;DHT22;10528;52.124;5.196;2022-10-16T03:34:41;14.00;99.90
20735;DHT22;10528;52.124;5.196;2022-10-16T03:37:08;14.00;99.90
20735;DHT22;10528;52.124;5.196;2022-10-16T03:39:35;13.90;99.90
20735;DHT22;10528;52.124;5.196;2022-10-16T03:42:02;13.90;99.90
20735;DHT22;10528;52.124;5.196;2022-10-16T03:44:29;13.90;99.90
20735;DHT22;10528;52.124;5.196;2022-10-16T03:46:56;13.90;99.90
20735;DHT22;10528;52.124;5.196;2022-10-16T03:49:22;13.90;99.90
20735;DHT22;10528;52.124;5.196;2022-10-16T03:51:49;13.90;99.90
20735;DHT22;10528;52.124;5.196;2022-10-16T03:54:16;13.80;99.90
20735;DHT22;10528;52.124;5.196;2022-10-16T03:56:43;13.90;99.90
20735;DHT22;10528;52.124;5.196;2022-10-16T03:59:10;13.80;99.90
20735;DHT22;10528;52.124;5.196;2022-10-16T04:01:36;13.90;99.90
20735;DHT22;10528;52.124;5.196;2022-10-16T04:04:03;13.90;99.90
20735;DHT22;10528;52.124;5.196;2022-10-16T04:06:30;13.90;99.90
20735;DHT22;10528;52.124;5.196;2022-10-16T04:08:56;13.90;99.90
20735;DHT22;10528;52.124;5.196;2022-10-16T04:11:23;13.90;99.90
20735;DHT22;10528;52.124;5.196;2022-10-16T04:13:50;13.90;99.90
20735;DHT22;10528;52.124;5.196;2022-10-16T04:16:17;13.90;99.90
20735;DHT22;10528;52.124;5.196;2022-10-16T04:18:44;13.90;99.90
20735;DHT22;10528;52.124;5.196;2022-10-16T04:21:10;13.90;99.90
20735;DHT22;10528;52.124;5.196;2022-10-16T04:23:37;13.90;99.90
20735;DHT22;10528;52.124;5.196;2022-10-16T04:26:04;13.90;99.90
20735;DHT22;10528;52.124;5.196;2022-10-16T04:28:32;13.90;99.90
20735;DHT22;10528;52.124;5.196;2022-10-16T04:30:58;14.00;99.90
20735;DHT22;10528;52.124;5.196;2022-10-16T04:33:25;13.90;99.90
20735;DHT22;10528;52.124;5.196;2022-10-16T04:36:02;13.90;99.90
20735;DHT22;10528;52.124;5.196;2022-10-16T04:38:30;13.90;99.90
20735;DHT22;10528;52.124;5.196;2022-10-16T04:40:56;13.90;99.90
20735;DHT22;10528;52.124;5.196;2022-10-16T04:43:23;13.80;99.90
20735;DHT22;10528;52.124;5.196;2022-10-16T04:45:50;13.80;99.90
20735;DHT22;10528;52.124;5.196;2022-10-16T04:48:18;13.80;99.90
20735;DHT22;10528;52.124;5.196;2022-10-16T04:50:45;13.80;99.90
20735;DHT22;10528;52.124;5.196;2022-10-16T04:53:18;13.70;99.90
20735;DHT22;10528;52.124;5.196;2022-10-16T04:55:45;13.70;99.90
20735;DHT22;10528;52.124;5.196;2022-10-16T04:58:12;13.70;99.90
20735;DHT22;10528;52.124;5.196;2022-10-16T05:00:39;13.70;99.90
20735;DHT22;10528;52.124;5.196;2022-10-16T05:03:06;13.60;99.90
20735;DHT22;10528;52.124;5.196;2022-10-16T05:05:36;13.60;99.90
20735;DHT22;10528;52.124;5.196;2022-10-16T05:08:03;13.60;99.90
20735;DHT22;10528;52.124;5.196;2022-10-16T05:10:30;13.60;99.90
20735;DHT22;10528;52.124;5.196;2022-10-16T05:12:57;13.60;99.90
20735;DHT22;10528;52.124;5.196;2022-10-16T05:15:24;13.60;99.90
20735;DHT22;10528;52.124;5.196;2022-10-16T05:17:55;13.60;99.90
20735;DHT22;10528;52.124;5.196;2022-10-16T05:20:22;13.60;99.90
20735;DHT22;10528;52.124;5.196;2022-10-16T05:22:49;13.60;99.90
20735;DHT22;10528;52.124;5.196;2022-10-16T05:25:16;13.60;99.90
20735;DHT22;10528;52.124;5.196;2022-10-16T05:27:46;13.60;99.90
20735;DHT22;10528;52.124;5.196;2022-10-16T05:30:14;13.50;99.90
20735;DHT22;10528;52.124;5.196;2022-10-16T05:32:45;13.70;99.90
20735;DHT22;10528;52.124;5.196;2022-10-16T05:35:13;13.60;99.90
20735;DHT22;10528;52.124;5.196;2022-10-16T05:37:40;13.60;99.90
20735;DHT22;10528;52.124;5.196;2022-10-16T05:40:07;13.60;99.90
20735;DHT22;10528;52.124;5.196;2022-10-16T05:42:35;13.70;99.90
20735;DHT22;10528;52.124;5.196;2022-10-16T05:45:02;13.70;99.90
20735;DHT22;10528;52.124;5.196;2022-10-16T05:47:29;13.70;99.90
20735;DHT22;10528;52.124;5.196;2022-10-16T05:49:55;13.70;99.90
20735;DHT22;10528;52.124;5.196;2022-10-16T05:52:22;13.70;99.90
20735;DHT22;10528;52.124;5.196;2022-10-16T05:54:49;13.70;99.90
20735;DHT22;10528;52.124;5.196;2022-10-16T05:57:16;13.70;99.90
20735;DHT22;10528;52.124;5.196;2022-10-16T05:59:43;13.70;99.90
20735;DHT22;10528;52.124;5.196;2022-10-16T06:02:13;13.70;99.90
20735;DHT22;10528;52.124;5.196;2022-10-16T06:04:41;13.70;99.90
20735;DHT22;10528;52.124;5.196;2022-10-16T06:07:08;13.70;99.90
20735;DHT22;10528;52.124;5.196;2022-10-16T06:09:34;13.70;99.90
20735;DHT22;10528;52.124;5.196;2022-10-16T06:12:01;13.70;99.90
20735;DHT22;10528;52.124;5.196;2022-10-16T06:14:28;13.70;99.90
20735;DHT22;10528;52.124;5.196;2022-10-16T06:16:55;13.70;99.90
20735;DHT22;10528;52.124;5.196;2022-10-16T06:19:22;13.70;99.90
20735;DHT22;10528;52.124;5.196;2022-10-16T06:21:49;13.70;99.90
20735;DHT22;10528;52.124;5.196;2022-10-16T06:24:16;13.70;99.90
20735;DHT22;10528;52.124;5.196;2022-10-16T06:26:43;13.70;99.90
20735;DHT22;10528;52.124;5.196;2022-10-16T06:29:10;13.60;99.90
20735;DHT22;10528;52.124;5.196;2022-10-16T06:31:36;13.60;99.90
20735;DHT22;10528;52.124;5.196;2022-10-16T06:34:03;13.60;99.90
20735;DHT22;10528;52.124;5.196;2022-10-16T06:36:32;13.60;99.90
20735;DHT22;10528;52.124;5.196;2022-10-16T06:38:59;13.60;99.90
20735;DHT22;10528;52.124;5.196;2022-10-16T06:41:26;13.60;99.90
20735;DHT22;10528;52.124;5.196;2022-10-16T06:43:52;13.60;99.90
20735;DHT22;10528;52.124;5.196;2022-10-16T06:46:22;13.60;99.90
20735;DHT22;10528;52.124;5.196;2022-10-16T06:48:50;13.60;99.90
20735;DHT22;10528;52.124;5.196;2022-10-16T06:51:22;13.60;99.90
20735;DHT22;10528;52.124;5.196;2022-10-16T06:53:52;13.60;99.90
20735;DHT22;10528;52.124;5.196;2022-10-16T06:56:34;13.60;99.90
20735;DHT22;10528;52.124;5.196;2022-10-16T06:59:03;13.60;99.90
20735;DHT22;10528;52.124;5.196;2022-10-16T07:01:30;13.70;99.90
20735;DHT22;10528;52.124;5.196;2022-10-16T07:03:57;13.70;99.90
20735;DHT22;10528;52.124;5.196;2022-10-16T07:06:25;13.70;99.90
20735;DHT22;10528;52.124;5.196;2022-10-16T07:08:53;13.70;99.90
20735;DHT22;10528;52.124;5.196;2022-10-16T07:11:22;13.80;99.90
20735;DHT22;10528;52.124;5.196;2022-10-16T07:13:50;13.80;99.90
20735;DHT22;10528;52.124;5.196;2022-10-16T07:16:25;13.80;99.90
20735;DHT22;10528;52.124;5.196;2022-10-16T07:18:55;13.80;99.90
20735;DHT22;10528;52.124;5.196;2022-10-16T07:21:30;13.90;99.90
20735;DHT22;10528;52.124;5.196;2022-10-16T07:24:01;13.90;99.90
20735;DHT22;10528;52.124;5.196;2022-10-16T07:26:31;14.00;99.90
20735;DHT22;10528;52.124;5.196;2022-10-16T07:29:00;14.00;99.90
20735;DHT22;10528;52.124;5.196;2022-10-16T07:31:27;14.00;99.90
20735;DHT22;10528;52.124;5.196;2022-10-16T07:33:54;14.10;99.90
20735;DHT22;10528;52.124;5.196;2022-10-16T07:36:21;14.10;99.90
20735;DHT22;10528;52.124;5.196;2022-10-16T07:38:48;14.20;99.90
20735;DHT22;10528;52.124;5.196;2022-10-16T07:41:19;14.10;99.90
20735;DHT22;10528;52.124;5.196;2022-10-16T07:43:51;14.10;99.90
20735;DHT22;10528;52.124;5.196;2022-10-16T07:46:22;14.10;99.90
20735;DHT22;10528;52.124;5.196;2022-10-16T07:48:49;14.10;99.90
20735;DHT22;10528;52.124;5.196;2022-10-16T07:51:19;14.10;99.90
20735;DHT22;10528;52.124;5.196;2022-10-16T07:53:48;14.10;99.90
20735;DHT22;10528;52.124;5.196;2022-10-16T07:56:17;14.10;99.90
20735;DHT22;10528;52.124;5.196;2022-10-16T07:58:44;14.20;99.90
20735;DHT22;10528;52.124;5.196;2022-10-16T08:01:13;14.20;99.90
20735;DHT22;10528;52.124;5.196;2022-10-16T08:03:46;14.20;99.90
20735;DHT22;10528;52.124;5.196;2022-10-16T08:06:15;14.20;99.90
20735;DHT22;10528;52.124;5.196;2022-10-16T08:08:42;14.30;99.90
20735;DHT22;10528;52.124;5.196;2022-10-16T08:11:09;14.30;99.90
20735;DHT22;10528;52.124;5.196;2022-10-16T08:13:36;14.30;99.90
20735;DHT22;10528;52.124;5.196;2022-10-16T08:16:04;14.30;99.90
20735;DHT22;10528;52.124;5.196;2022-10-16T08:18:35;14.30;99.90
20735;DHT22;10528;52.124;5.196;2022-10-16T08:21:04;14.40;99.90
20735;DHT22;10528;52.124;5.196;2022-10-16T08:23:33;14.50;99.90
20735;DHT22;10528;52.124;5.196;2022-10-16T08:26:06;14.50;99.90
20735;DHT22;10528;52.124;5.196;2022-10-16T08:28:35;14.50;99.90
20735;DHT22;10528;52.124;5.196;2022-10-16T08:33:42;14.60;99.90
20735;DHT22;10528;52.124;5.196;2022-10-16T08:36:10;14.70;99.90
20735;DHT22;10528;52.124;5.196;2022-10-16T08:38:38;14.70;99.90
20735;DHT22;10528;52.124;5.196;2022-10-16T08:47:19;15.00;99.90
20735;DHT22;10528;52.124;5.196;2022-10-16T08:49:55;15.00;99.90
20735;DHT22;10528;52.124;5.196;2022-10-16T08:52:29;15.10;99.90
20735;DHT22;10528;52.124;5.196;2022-10-16T08:55:00;15.20;99.90
20735;DHT22;10528;52.124;5.196;2022-10-16T08:57:28;15.20;99.90
20735;DHT22;10528;52.124;5.196;2022-10-16T09:00:00;15.30;99.90
20735;DHT22;10528;52.124;5.196;2022-10-16T09:02:44;15.50;99.90
20735;DHT22;10528;52.124;5.196;2022-10-16T09:05:43;15.50;99.90
20735;DHT22;10528;52.124;5.196;2022-10-16T09:11:37;15.70;99.90
20735;DHT22;10528;52.124;5.196;2022-10-16T09:14:19;15.80;99.90
20735;DHT22;10528;52.124;5.196;2022-10-16T09:22:45;16.00;99.90
20735;DHT22;10528;52.124;5.196;2022-10-16T09:25:21;15.90;99.90
20735;DHT22;10528;52.124;5.196;2022-10-16T09:27:49;15.90;99.90
20735;DHT22;10528;52.124;5.196;2022-10-16T09:30:21;15.90;99.90
20735;DHT22;10528;52.124;5.196;2022-10-16T09:32:51;15.90;99.90
20735;DHT22;10528;52.124;5.196;2022-10-16T09:35:22;16.10;99.90
20735;DHT22;10528;52.124;5.196;2022-10-16T09:38:02;16.40;99.90
20735;DHT22;10528;52.124;5.196;2022-10-16T09:40:38;16.40;99.90
20735;DHT22;10528;52.124;5.196;2022-10-16T09:43:25;16.50;99.90
20735;DHT22;10528;52.124;5.196;2022-10-16T09:46:02;16.70;99.90
20735;DHT22;10528;52.124;5.196;2022-10-16T09:48:37;16.50;99.90
20735;DHT22;10528;52.124;5.196;2022-10-16T09:51:24;16.50;99.90
20735;DHT22;10528;52.124;5.196;2022-10-16T09:54:02;16.80;99.90
20735;DHT22;10528;52.124;5.196;2022-10-16T09:56:40;16.70;99.90
20735;DHT22;10528;52.124;5.196;2022-10-16T09:59:13;16.70;99.90
20735;DHT22;10528;52.124;5.196;2022-10-16T10:01:51;16.80;99.90
20735;DHT22;10528;52.124;5.196;2022-10-16T10:04:21;16.80;99.90
20735;DHT22;10528;52.124;5.196;2022-10-16T10:06:55;16.80;99.90
20735;DHT22;10528;52.124;5.196;2022-10-16T10:09:29;17.00;99.90
20735;DHT22;10528;52.124;5.196;2022-10-16T10:12:01;17.00;99.90
20735;DHT22;10528;52.124;5.196;2022-10-16T10:14:47;16.90;99.90
20735;DHT22;10528;52.124;5.196;2022-10-16T10:17:21;17.00;99.90
20735;DHT22;10528;52.124;5.196;2022-10-16T10:23:25;16.90;99.90
20735;DHT22;10528;52.124;5.196;2022-10-16T10:26:11;16.80;99.90
20735;DHT22;10528;52.124;5.196;2022-10-16T10:28:55;16.90;99.90
20735;DHT22;10528;52.124;5.196;2022-10-16T10:37:20;17.00;99.90
20735;DHT22;10528;52.124;5.196;2022-10-16T10:43:43;17.40;99.90
20735;DHT22;10528;52.124;5.196;2022-10-16T10:46:51;17.30;99.90
20735;DHT22;10528;52.124;5.196;2022-10-16T10:49:55;17.40;99.90
20735;DHT22;10528;52.124;5.196;2022-10-16T10:55:37;17.30;99.90
20735;DHT22;10528;52.124;5.196;2022-10-16T10:58:44;17.40;99.90
20735;DHT22;10528;52.124;5.196;2022-10-16T11:07:39;16.90;99.90
20735;DHT22;10528;52.124;5.196;2022-10-16T11:10:21;16.80;99.90
20735;DHT22;10528;52.124;5.196;2022-10-16T11:13:00;16.80;99.90
20735;DHT22;10528;52.124;5.196;2022-10-16T11:15:50;16.80;99.90
20735;DHT22;10528;52.124;5.196;2022-10-16T11:18:22;16.90;99.90
20735;DHT22;10528;52.124;5.196;2022-10-16T11:21:09;17.00;99.90
20735;DHT22;10528;52.124;5.196;2022-10-16T11:24:13;16.90;99.90
20735;DHT22;10528;52.124;5.196;2022-10-16T11:26:46;16.90;99.90
20735;DHT22;10528;52.124;5.196;2022-10-16T11:29:21;17.00;99.90
20735;DHT22;10528;52.124;5.196;2022-10-16T11:31:57;17.20;99.90
20735;DHT22;10528;52.124;5.196;2022-10-16T11:34:41;17.10;99.90
20735;DHT22;10528;52.124;5.196;2022-10-16T11:37:19;17.20;99.90
20735;DHT22;10528;52.124;5.196;2022-10-16T11:39:54;17.30;99.90
20735;DHT22;10528;52.124;5.196;2022-10-16T11:42:39;17.30;99.90
20735;DHT22;10528;52.124;5.196;2022-10-16T11:48:32;17.50;99.90
20735;DHT22;10528;52.124;5.196;2022-10-16T11:51:14;17.30;99.90
20735;DHT22;10528;52.124;5.196;2022-10-16T11:56:41;17.10;99.90
20735;DHT22;10528;52.124;5.196;2022-10-16T11:59:31;17.10;99.90
20735;DHT22;10528;52.124;5.196;2022-10-16T12:05:07;17.10;99.90
20735;DHT22;10528;52.124;5.196;2022-10-16T12:07:57;17.40;99.90
20735;DHT22;10528;52.124;5.196;2022-10-16T12:10:32;17.30;99.90
20735;DHT22;10528;52.124;5.196;2022-10-16T12:13:36;17.30;99.90
20735;DHT22;10528;52.124;5.196;2022-10-16T12:18:40;17.60;99.90
20735;DHT22;10528;52.124;5.196;2022-10-16T12:21:09;17.80;99.90
20735;DHT22;10528;52.124;5.196;2022-10-16T12:23:54;18.00;99.90
20735;DHT22;10528;52.124;5.196;2022-10-16T12:26:39;18.00;99.90
20735;DHT22;10528;52.124;5.196;2022-10-16T12:32:35;18.20;99.90
20735;DHT22;10528;52.124;5.196;2022-10-16T12:35:25;18.20;99.90
20735;DHT22;10528;52.124;5.196;2022-10-16T12:38:05;18.20;99.90
20735;DHT22;10528;52.124;5.196;2022-10-16T12:40:36;18.20;99.90
20735;DHT22;10528;52.124;5.196;2022-10-16T12:43:24;18.10;99.90
20735;DHT22;10528;52.124;5.196;2022-10-16T12:48:38;17.80;99.90
20735;DHT22;10528;52.124;5.196;2022-10-16T12:54:15;17.60;99.90
20735;DHT22;10528;52.124;5.196;2022-10-16T13:00:43;17.60;99.90
20735;DHT22;10528;52.124;5.196;2022-10-16T13:06:32;17.80;99.90
20735;DHT22;10528;52.124;5.196;2022-10-16T13:09:03;17.80;99.90
20735;DHT22;10528;52.124;5.196;2022-10-16T13:11:58;17.80;99.90
20735;DHT22;10528;52.124;5.196;2022-10-16T13:15:00;17.80;99.90
20735;DHT22;10528;52.124;5.196;2022-10-16T13:17:46;17.80;99.90
20735;DHT22;10528;52.124;5.196;2022-10-16T13:20:46;17.80;99.90
20735;DHT22;10528;52.124;5.196;2022-10-16T13:23:29;17.80;99.90
20735;DHT22;10528;52.124;5.196;2022-10-16T13:29:07;17.80;99.90
20735;DHT22;10528;52.124;5.196;2022-10-16T13:31:38;17.70;99.90
20735;DHT22;10528;52.124;5.196;2022-10-16T13:34:06;17.70;99.90
20735;DHT22;10528;52.124;5.196;2022-10-16T13:36:49;17.80;99.90
20735;DHT22;10528;52.124;5.196;2022-10-16T13:39:27;17.80;99.90
20735;DHT22;10528;52.124;5.196;2022-10-16T13:42:04;17.80;99.90
20735;DHT22;10528;52.124;5.196;2022-10-16T13:44:40;17.80;99.90
20735;DHT22;10528;52.124;5.196;2022-10-16T13:47:20;17.70;99.90
20735;DHT22;10528;52.124;5.196;2022-10-16T13:50:06;17.70;99.90
20735;DHT22;10528;52.124;5.196;2022-10-16T13:52:40;17.60;99.90
20735;DHT22;10528;52.124;5.196;2022-10-16T13:55:15;17.60;99.90
20735;DHT22;10528;52.124;5.196;2022-10-16T13:57:44;17.60;99.90
20735;DHT22;10528;52.124;5.196;2022-10-16T14:00:25;17.60;99.90
20735;DHT22;10528;52.124;5.196;2022-10-16T14:03:11;17.60;99.90
20735;DHT22;10528;52.124;5.196;2022-10-16T14:05:49;17.60;99.90
20735;DHT22;10528;52.124;5.196;2022-10-16T14:08:22;17.60;99.90
20735;DHT22;10528;52.124;5.196;2022-10-16T14:10:53;17.60;99.90
20735;DHT22;10528;52.124;5.196;2022-10-16T14:13:34;17.60;99.90
20735;DHT22;10528;52.124;5.196;2022-10-16T14:16:07;17.60;99.90
20735;DHT22;10528;52.124;5.196;2022-10-16T14:18:38;17.60;99.90
20735;DHT22;10528;52.124;5.196;2022-10-16T14:21:11;17.60;99.90
20735;DHT22;10528;52.124;5.196;2022-10-16T14:23:41;17.50;99.90
20735;DHT22;10528;52.124;5.196;2022-10-16T14:28:37;17.50;99.90
20735;DHT22;10528;52.124;5.196;2022-10-16T14:31:26;17.50;99.90
20735;DHT22;10528;52.124;5.196;2022-10-16T14:33:58;17.60;99.90
20735;DHT22;10528;52.124;5.196;2022-10-16T14:36:27;17.60;99.90
20735;DHT22;10528;52.124;5.196;2022-10-16T14:41:30;17.50;99.90
20735;DHT22;10528;52.124;5.196;2022-10-16T14:44:02;17.50;99.90
20735;DHT22;10528;52.124;5.196;2022-10-16T14:46:38;17.50;99.90
20735;DHT22;10528;52.124;5.196;2022-10-16T14:51:38;17.50;99.90
20735;DHT22;10528;52.124;5.196;2022-10-16T14:54:16;17.50;99.90
20735;DHT22;10528;52.124;5.196;2022-10-16T14:56:53;17.50;99.90
20735;DHT22;10528;52.124;5.196;2022-10-16T14:59:32;17.50;99.90
20735;DHT22;10528;52.124;5.196;2022-10-16T15:04:55;17.50;99.90
20735;DHT22;10528;52.124;5.196;2022-10-16T15:07:22;17.40;99.90
20735;DHT22;10528;52.124;5.196;2022-10-16T15:09:50;17.40;99.90
20735;DHT22;10528;52.124;5.196;2022-10-16T15:12:17;17.40;99.90
20735;DHT22;10528;52.124;5.196;2022-10-16T15:14:44;17.40;99.90
20735;DHT22;10528;52.124;5.196;2022-10-16T15:17:11;17.40;99.90
20735;DHT22;10528;52.124;5.196;2022-10-16T15:19:40;17.30;99.90
20735;DHT22;10528;52.124;5.196;2022-10-16T15:22:08;17.30;99.90
20735;DHT22;10528;52.124;5.196;2022-10-16T15:24:37;17.30;99.90
20735;DHT22;10528;52.124;5.196;2022-10-16T15:27:04;17.20;99.90
20735;DHT22;10528;52.124;5.196;2022-10-16T15:29:31;17.00;99.90
20735;DHT22;10528;52.124;5.196;2022-10-16T15:31:57;17.00;99.90
20735;DHT22;10528;52.124;5.196;2022-10-16T15:34:24;16.90;99.90
20735;DHT22;10528;52.124;5.196;2022-10-16T15:36:51;16.90;99.90
20735;DHT22;10528;52.124;5.196;2022-10-16T15:39:19;16.80;99.90
20735;DHT22;10528;52.124;5.196;2022-10-16T15:41:47;16.70;99.90
20735;DHT22;10528;52.124;5.196;2022-10-16T15:44:17;16.70;99.90
20735;DHT22;10528;52.124;5.196;2022-10-16T15:46:45;16.70;99.90
20735;DHT22;10528;52.124;5.196;2022-10-16T15:49:12;16.60;99.90
20735;DHT22;10528;52.124;5.196;2022-10-16T15:51:40;16.60;99.90
20735;DHT22;10528;52.124;5.196;2022-10-16T15:54:09;16.50;99.90
20735;DHT22;10528;52.124;5.196;2022-10-16T15:56:35;16.50;99.90
20735;DHT22;10528;52.124;5.196;2022-10-16T15:59:04;16.40;99.90
20735;DHT22;10528;52.124;5.196;2022-10-16T16:01:33;16.30;99.90
20735;DHT22;10528;52.124;5.196;2022-10-16T16:04:01;16.30;99.90
20735;DHT22;10528;52.124;5.196;2022-10-16T16:06:45;16.30;99.90
20735;DHT22;10528;52.124;5.196;2022-10-16T16:09:13;16.20;99.90
20735;DHT22;10528;52.124;5.196;2022-10-16T16:11:41;16.20;99.90
20735;DHT22;10528;52.124;5.196;2022-10-16T16:14:12;16.10;99.90
20735;DHT22;10528;52.124;5.196;2022-10-16T16:16:40;16.10;99.90
20735;DHT22;10528;52.124;5.196;2022-10-16T16:19:07;16.10;99.90
20735;DHT22;10528;52.124;5.196;2022-10-16T16:21:37;16.00;99.90
20735;DHT22;10528;52.124;5.196;2022-10-16T16:24:05;16.00;99.90
20735;DHT22;10528;52.124;5.196;2022-10-16T16:26:35;15.90;99.90
20735;DHT22;10528;52.124;5.196;2022-10-16T16:29:06;16.00;99.90
20735;DHT22;10528;52.124;5.196;2022-10-16T16:31:35;15.90;99.90
20735;DHT22;10528;52.124;5.196;2022-10-16T16:34:01;16.00;99.90
20735;DHT22;10528;52.124;5.196;2022-10-16T16:36:29;15.90;99.90
20735;DHT22;10528;52.124;5.196;2022-10-16T16:38:57;15.90;99.90
20735;DHT22;10528;52.124;5.196;2022-10-16T16:41:27;15.80;99.90
20735;DHT22;10528;52.124;5.196;2022-10-16T16:43:55;15.80;99.90
20735;DHT22;10528;52.124;5.196;2022-10-16T16:46:27;15.60;99.90
20735;DHT22;10528;52.124;5.196;2022-10-16T16:48:54;15.60;99.90
20735;DHT22;10528;52.124;5.196;2022-10-16T16:51:21;15.50;99.90
20735;DHT22;10528;52.124;5.196;2022-10-16T16:53:50;15.50;99.90
20735;DHT22;10528;52.124;5.196;2022-10-16T16:56:19;15.40;99.90
20735;DHT22;10528;52.124;5.196;2022-10-16T16:58:48;15.30;99.90
20735;DHT22;10528;52.124;5.196;2022-10-16T17:01:17;15.30;99.90
20735;DHT22;10528;52.124;5.196;2022-10-16T17:03:48;15.30;99.90
20735;DHT22;10528;52.124;5.196;2022-10-16T17:06:18;15.30;99.90
20735;DHT22;10528;52.124;5.196;2022-10-16T17:08:48;15.20;99.90
20735;DHT22;10528;52.124;5.196;2022-10-16T17:11:18;15.20;99.90
20735;DHT22;10528;52.124;5.196;2022-10-16T17:13:48;15.20;99.90
20735;DHT22;10528;52.124;5.196;2022-10-16T17:16:28;15.20;99.90
20735;DHT22;10528;52.124;5.196;2022-10-16T17:19:07;15.20;99.90
20735;DHT22;10528;52.124;5.196;2022-10-16T17:21:37;15.30;99.90
20735;DHT22;10528;52.124;5.196;2022-10-16T17:24:04;15.30;99.90
20735;DHT22;10528;52.124;5.196;2022-10-16T17:26:32;15.30;99.90
20735;DHT22;10528;52.124;5.196;2022-10-16T17:29:01;15.30;99.90
20735;DHT22;10528;52.124;5.196;2022-10-16T17:31:31;15.30;99.90